createdAt,value
2019-03-10T00:03:53.062Z,80.90
2019-03-10T00:08:52.761Z,81.00
2019-03-10T00:13:52.437Z,81.70
2019-03-10T00:18:52.370Z,81.90
2019-03-10T00:23:51.967Z,81.80
2019-03-10T00:28:51.947Z,81.30
2019-03-10T00:33:52.005Z,81.00
2019-03-10T00:39:48.074Z,81.20
2019-03-10T00:45:29.470Z,81.20
2019-03-10T00:51:00.219Z,81.80
2019-03-10T00:55:59.866Z,81.00
2019-03-10T01:00:59.498Z,81.00
2019-03-10T01:05:59.290Z,80.80
2019-03-10T01:10:59.094Z,81.10
2019-03-10T01:15:59.590Z,81.30
2019-03-10T01:21:10.871Z,81.70
2019-03-10T01:26:10.815Z,82.00
2019-03-10T01:31:25.978Z,82.70
2019-03-10T01:36:24.313Z,81.40
2019-03-10T01:41:23.958Z,82.10
2019-03-10T01:46:23.593Z,82.70
2019-03-10T01:51:23.606Z,82.40
2019-03-10T01:56:23.260Z,82.20
2019-03-10T02:01:22.882Z,82.40
2019-03-10T02:06:22.542Z,82.40
2019-03-10T02:11:22.166Z,82.30
2019-03-10T02:16:21.787Z,81.90
2019-03-10T02:21:21.718Z,81.90
2019-03-10T02:26:21.646Z,81.60
2019-03-10T02:31:21.651Z,82.00
2019-03-10T02:36:21.299Z,81.50
2019-03-10T02:41:20.960Z,81.80
2019-03-10T02:46:20.958Z,81.40
2019-03-10T02:51:20.605Z,81.60
2019-03-10T02:56:20.243Z,83.50
2019-03-10T03:01:19.866Z,82.40
2019-03-10T03:06:19.503Z,83.20
2019-03-10T03:11:19.404Z,83.20
2019-03-10T03:16:19.132Z,83.70
2019-03-10T03:21:19.122Z,82.70
2019-03-10T03:26:18.934Z,82.50
2019-03-10T03:31:18.595Z,82.50
2019-03-10T03:36:22.800Z,82.60
2019-03-10T03:41:22.575Z,82.00
2019-03-10T03:46:22.519Z,81.80
2019-03-10T03:51:22.172Z,82.10
2019-03-10T03:56:21.859Z,82.00
2019-03-10T04:01:24.720Z,82.30
2019-03-10T04:06:24.367Z,83.00
2019-03-10T04:11:23.979Z,83.60
2019-03-10T04:16:23.636Z,83.40
2019-03-10T04:21:23.734Z,83.90
2019-03-10T04:26:23.462Z,83.50
2019-03-10T04:31:23.111Z,84.40
2019-03-10T04:36:22.945Z,84.00
2019-03-10T04:41:22.890Z,84.00
2019-03-10T04:46:22.544Z,84.00
2019-03-10T04:51:22.266Z,84.20
2019-03-10T04:56:30.424Z,84.10
2019-03-10T05:01:30.110Z,83.40
2019-03-10T05:06:29.734Z,83.30
2019-03-10T05:11:29.675Z,82.90
2019-03-10T05:16:29.454Z,83.10
2019-03-10T05:21:29.722Z,82.70
2019-03-10T05:26:29.542Z,82.60
2019-03-10T05:31:29.315Z,82.30
2019-03-10T05:36:28.950Z,82.30
2019-03-10T05:41:28.867Z,83.20
2019-03-10T05:46:28.550Z,82.20
2019-03-10T05:51:28.198Z,82.20
2019-03-10T05:56:27.959Z,82.40
2019-03-10T06:01:27.684Z,82.30
2019-03-10T06:06:27.366Z,82.40
2019-03-10T06:11:27.407Z,82.10
2019-03-10T06:16:27.054Z,82.30
2019-03-10T06:21:26.705Z,82.00
2019-03-10T06:26:26.642Z,82.30
2019-03-10T06:31:26.271Z,82.90
2019-03-10T06:36:25.902Z,82.30
2019-03-10T06:41:25.562Z,82.00
2019-03-10T06:46:25.206Z,81.80
2019-03-10T06:51:24.858Z,81.90
2019-03-10T06:56:25.737Z,81.70
2019-03-10T07:01:25.610Z,82.00
2019-03-10T07:06:25.234Z,82.20
2019-03-10T07:11:24.885Z,82.40
2019-03-10T07:16:24.540Z,82.30
2019-03-10T07:21:24.494Z,82.90
2019-03-10T07:26:24.150Z,83.00
2019-03-10T07:31:31.025Z,82.60
2019-03-10T07:36:49.648Z,82.50
2019-03-10T07:42:02.054Z,82.60
2019-03-10T07:47:26.829Z,82.80
2019-03-10T07:52:44.242Z,82.80
2019-03-10T07:58:01.950Z,82.90
2019-03-10T08:03:10.822Z,82.90
2019-03-10T08:08:31.802Z,82.80
2019-03-10T08:13:42.492Z,83.00
2019-03-10T08:19:03.202Z,83.20
2019-03-10T08:24:18.394Z,83.60
2019-03-10T08:29:29.991Z,84.10
2019-03-10T08:34:55.147Z,83.20
2019-03-10T08:40:01.714Z,83.30
2019-03-10T08:45:11.090Z,84.10
2019-03-10T08:50:26.162Z,83.40
2019-03-10T08:55:33.975Z,83.90
2019-03-10T09:00:40.608Z,82.80
2019-03-10T09:06:01.903Z,82.90
2019-03-10T09:11:30.493Z,82.70
2019-03-10T09:16:49.320Z,82.40
2019-03-10T09:22:14.947Z,82.20
2019-03-10T09:27:43.301Z,82.00
2019-03-10T09:32:55.652Z,81.90
2019-03-10T09:38:14.915Z,81.40
2019-03-10T09:43:28.158Z,81.40
2019-03-10T09:48:37.001Z,81.30
2019-03-10T09:53:54.743Z,81.20
2019-03-10T09:59:06.763Z,81.00
2019-03-10T10:04:34.150Z,80.80
2019-03-10T10:09:43.186Z,80.50
2019-03-10T10:15:04.823Z,80.30
2019-03-10T10:20:11.394Z,80.20
2019-03-10T10:25:16.674Z,80.10
2019-03-10T10:30:35.358Z,79.60
2019-03-10T10:36:01.494Z,79.60
2019-03-10T10:41:19.326Z,79.10
2019-03-10T10:46:37.195Z,79.40
2019-03-10T10:52:14.419Z,79.10
2019-03-10T10:57:24.154Z,78.30
2019-03-10T11:02:31.887Z,78.00
2019-03-10T11:07:50.690Z,77.80
2019-03-10T11:12:56.783Z,77.60
2019-03-10T11:18:18.304Z,76.60
2019-03-10T11:23:38.417Z,75.90
2019-03-10T11:29:09.475Z,75.00
2019-03-10T11:34:46.567Z,74.70
2019-03-10T11:39:52.406Z,74.20
2019-03-10T11:45:29.382Z,74.40
2019-03-10T11:50:38.868Z,74.80
2019-03-10T11:55:54.887Z,74.80
2019-03-10T12:01:16.715Z,75.20
2019-03-10T12:06:26.602Z,75.20
2019-03-10T12:11:26.863Z,75.50
2019-03-10T12:16:26.597Z,75.20
2019-03-10T12:21:26.234Z,75.00
2019-03-10T12:26:26.430Z,74.60
2019-03-10T12:31:26.614Z,74.10
2019-03-10T12:36:26.376Z,73.90
2019-03-10T12:41:26.334Z,73.40
2019-03-10T12:46:25.990Z,73.70
2019-03-10T12:51:25.927Z,73.50
2019-03-10T12:56:25.914Z,74.60
2019-03-10T13:01:28.500Z,74.40
2019-03-10T13:06:34.286Z,73.90
2019-03-10T13:11:33.951Z,73.90
2019-03-10T13:16:33.616Z,73.10
2019-03-10T13:21:33.353Z,74.40
2019-03-10T13:26:33.014Z,73.60
2019-03-10T13:31:32.943Z,73.20
2019-03-10T13:36:33.290Z,72.20
2019-03-10T13:41:32.970Z,72.30
2019-03-10T13:46:32.695Z,73.20
2019-03-10T13:51:32.343Z,71.80
2019-03-10T13:56:32.054Z,72.90
2019-03-10T14:01:31.855Z,73.80
2019-03-10T14:06:31.658Z,74.20
2019-03-10T14:11:31.903Z,74.90
2019-03-10T14:16:31.535Z,74.40
2019-03-10T14:21:32.379Z,74.80
2019-03-10T14:26:32.480Z,75.40
2019-03-10T14:31:32.091Z,75.40
2019-03-10T14:36:31.719Z,75.30
2019-03-10T14:41:31.706Z,75.40
2019-03-10T14:46:31.362Z,75.80
2019-03-10T14:51:43.387Z,75.70
2019-03-10T14:56:43.030Z,75.60
2019-03-10T15:01:42.738Z,75.20
2019-03-10T15:06:42.827Z,75.90
2019-03-10T15:11:42.469Z,76.40
2019-03-10T15:16:42.155Z,77.20
2019-03-10T15:21:41.802Z,75.20
2019-03-10T15:26:45.744Z,75.40
2019-03-10T15:31:43.033Z,75.20
2019-03-10T15:36:43.703Z,76.90
2019-03-10T15:41:43.418Z,76.20
2019-03-10T15:46:43.054Z,75.50
2019-03-10T15:51:42.807Z,76.30
2019-03-10T15:56:42.462Z,74.40
2019-03-10T16:01:43.238Z,75.50
2019-03-10T16:06:42.974Z,78.20
2019-03-10T16:11:42.626Z,79.20
2019-03-10T16:16:42.342Z,78.40
2019-03-10T16:21:42.234Z,79.70
2019-03-10T16:26:41.871Z,78.70
2019-03-10T16:31:41.518Z,77.50
2019-03-10T16:36:41.489Z,77.80
2019-03-10T16:41:41.525Z,80.30
2019-03-10T16:46:41.170Z,80.80
2019-03-10T16:51:40.810Z,80.50
2019-03-10T16:56:40.812Z,79.60
2019-03-10T17:01:40.552Z,78.50
2019-03-10T17:06:40.193Z,78.80
2019-03-10T17:11:39.885Z,79.70
2019-03-10T17:16:39.916Z,80.00
2019-03-10T17:21:41.863Z,79.80
2019-03-10T17:26:40.904Z,79.60
2019-03-10T17:31:40.734Z,80.00
2019-03-10T17:36:40.375Z,79.60
2019-03-10T17:41:40.085Z,79.20
2019-03-10T17:46:39.806Z,79.60
2019-03-10T17:51:39.461Z,79.30
2019-03-10T17:56:39.154Z,79.60
2019-03-10T18:01:39.710Z,79.50
2019-03-10T18:06:39.432Z,79.80
2019-03-10T18:11:39.184Z,79.60
2019-03-10T18:16:38.838Z,79.20
2019-03-10T18:21:38.515Z,78.70
2019-03-10T18:26:38.259Z,79.90
2019-03-10T18:31:37.927Z,79.10
2019-03-10T18:36:37.655Z,79.70
2019-03-10T18:41:37.293Z,79.80
2019-03-10T18:46:36.943Z,79.70
2019-03-10T18:51:36.608Z,80.60
2019-03-10T18:56:36.226Z,79.90
2019-03-10T19:01:36.150Z,78.90
2019-03-10T19:06:35.794Z,79.30
2019-03-10T19:11:36.642Z,80.10
2019-03-10T19:16:36.315Z,80.20
2019-03-10T19:21:35.962Z,80.80
2019-03-10T19:26:35.912Z,80.90
2019-03-10T19:31:35.571Z,81.30
2019-03-10T19:36:35.443Z,81.00
2019-03-10T19:41:35.200Z,81.20
2019-03-10T19:46:34.902Z,80.50
2019-03-10T19:51:34.526Z,81.80
2019-03-10T19:56:34.483Z,81.20
2019-03-10T20:01:35.284Z,82.00
2019-03-10T20:06:35.584Z,81.90
2019-03-10T20:11:35.344Z,80.70
2019-03-10T20:16:34.992Z,81.00
2019-03-10T20:21:34.694Z,81.10
2019-03-10T20:26:34.361Z,81.70
2019-03-10T20:31:34.042Z,81.70
2019-03-10T20:36:33.732Z,80.90
2019-03-10T20:41:33.459Z,80.20
2019-03-10T20:46:33.116Z,80.60
2019-03-10T20:51:32.756Z,81.00
2019-03-10T20:56:32.751Z,81.60
2019-03-10T21:01:32.399Z,82.20
2019-03-10T21:06:32.023Z,82.80
2019-03-10T21:11:31.665Z,82.70
2019-03-10T21:16:31.339Z,82.70
2019-03-10T21:21:31.076Z,83.00
2019-03-10T21:26:30.723Z,82.50
2019-03-10T21:31:30.365Z,82.90
2019-03-10T21:36:30.271Z,83.80
2019-03-10T21:41:30.070Z,83.50
2019-03-10T21:46:29.730Z,84.80
2019-03-10T21:51:29.659Z,84.30
2019-03-10T21:56:29.291Z,84.50
2019-03-10T22:01:28.931Z,84.20
2019-03-10T22:06:28.622Z,84.20
2019-03-10T22:11:28.278Z,84.50
2019-03-10T22:16:27.939Z,84.50
2019-03-10T22:21:27.614Z,84.10
2019-03-10T22:26:27.323Z,84.20
2019-03-10T22:31:26.992Z,84.80
2019-03-10T22:36:26.735Z,84.80
2019-03-10T22:41:26.387Z,84.70
2019-03-10T22:46:26.031Z,84.50
2019-03-10T22:51:25.677Z,85.00
2019-03-10T22:56:25.603Z,85.90
2019-03-10T23:01:25.457Z,85.70
2019-03-10T23:06:25.137Z,85.20
2019-03-10T23:11:25.845Z,84.50
2019-03-10T23:16:25.570Z,83.90
2019-03-10T23:21:25.203Z,84.70
2019-03-10T23:26:25.156Z,85.10
2019-03-10T23:31:24.868Z,85.20
2019-03-10T23:36:24.505Z,84.80
2019-03-10T23:41:24.169Z,84.90
2019-03-10T23:46:24.107Z,85.20
2019-03-10T23:51:24.034Z,83.90
2019-03-10T23:56:23.691Z,84.80
